createdAt,value
2019-01-09T00:00:21.391Z,993.6
2019-01-09T00:01:01.942Z,993.57
2019-01-09T00:01:42.484Z,993.61
2019-01-09T00:02:23.052Z,993.56
2019-01-09T00:03:03.615Z,993.55
2019-01-09T00:03:44.171Z,993.62
2019-01-09T00:04:24.716Z,993.58
2019-01-09T00:05:05.280Z,993.64
2019-01-09T00:05:45.849Z,993.61
2019-01-09T00:06:26.422Z,993.61
2019-01-09T00:07:06.981Z,993.65
2019-01-09T00:07:47.534Z,993.63
2019-01-09T00:08:28.106Z,993.64
2019-01-09T00:09:08.667Z,993.64
2019-01-09T00:09:49.217Z,993.65
2019-01-09T00:10:29.789Z,993.58
2019-01-09T00:11:10.318Z,993.62
2019-01-09T00:11:50.901Z,993.67
2019-01-09T00:12:31.480Z,993.63
2019-01-09T00:13:12.019Z,993.61
2019-01-09T00:13:52.581Z,993.62
2019-01-09T00:14:33.144Z,993.57
2019-01-09T00:15:13.701Z,993.62
2019-01-09T00:15:54.263Z,993.64
2019-01-09T00:16:34.864Z,993.7
2019-01-09T00:17:15.395Z,993.66
2019-01-09T00:17:55.960Z,993.64
2019-01-09T00:18:36.528Z,993.67
2019-01-09T00:19:17.081Z,993.64
2019-01-09T00:19:57.665Z,993.6
2019-01-09T00:20:38.220Z,993.68
2019-01-09T00:21:18.773Z,993.65
2019-01-09T00:21:59.344Z,993.65
2019-01-09T00:22:39.923Z,993.67
2019-01-09T00:23:20.708Z,993.75
2019-01-09T00:24:01.269Z,993.68
2019-01-09T00:24:41.856Z,993.67
2019-01-09T00:25:22.400Z,993.67
2019-01-09T00:26:03.013Z,993.7
2019-01-09T00:26:43.616Z,993.67
2019-01-09T00:27:24.148Z,993.69
2019-01-09T00:28:04.708Z,993.64
2019-01-09T00:28:45.260Z,993.71
2019-01-09T00:29:25.802Z,993.71
2019-01-09T00:30:06.375Z,993.66
2019-01-09T00:30:46.933Z,993.69
2019-01-09T00:31:27.507Z,993.62
2019-01-09T00:32:08.052Z,993.69
2019-01-09T00:32:48.615Z,993.64
2019-01-09T00:33:29.166Z,993.71
2019-01-09T00:34:09.720Z,993.69
2019-01-09T00:34:50.287Z,993.65
2019-01-09T00:35:37.126Z,993.7
2019-01-09T00:36:11.385Z,993.64
2019-01-09T00:36:51.969Z,993.63
2019-01-09T00:37:32.521Z,993.7
2019-01-09T00:38:13.102Z,993.74
2019-01-09T00:38:53.665Z,993.7
2019-01-09T00:39:34.233Z,993.7
2019-01-09T00:40:14.776Z,993.66
2019-01-09T00:40:55.360Z,993.75
2019-01-09T00:41:35.972Z,993.69
2019-01-09T00:42:16.562Z,993.66
2019-01-09T00:42:57.097Z,993.73
2019-01-09T00:43:37.647Z,993.72
2019-01-09T00:44:18.226Z,993.64
2019-01-09T00:44:58.769Z,993.74
2019-01-09T00:45:39.329Z,993.76
2019-01-09T00:46:19.888Z,993.78
2019-01-09T00:47:00.512Z,993.67
2019-01-09T00:47:41.078Z,993.76
2019-01-09T00:48:21.641Z,993.7
2019-01-09T00:49:02.197Z,993.8
2019-01-09T00:49:42.740Z,993.78
2019-01-09T00:50:23.297Z,993.78
2019-01-09T00:51:03.865Z,993.77
2019-01-09T00:51:44.428Z,993.71
2019-01-09T00:52:24.987Z,993.81
2019-01-09T00:53:05.538Z,993.83
2019-01-09T00:53:46.130Z,993.82
2019-01-09T00:54:26.696Z,993.87
2019-01-09T00:55:07.248Z,993.83
2019-01-09T00:55:47.791Z,993.8
2019-01-09T00:56:28.352Z,993.86
2019-01-09T00:57:08.941Z,993.87
2019-01-09T00:57:49.499Z,993.87
2019-01-09T00:58:30.059Z,993.82
2019-01-09T00:59:10.626Z,993.88
2019-01-09T00:59:51.178Z,993.91
2019-01-09T01:00:31.747Z,993.95
2019-01-09T01:01:12.294Z,993.93
2019-01-09T01:01:52.849Z,993.91
2019-01-09T01:02:33.401Z,993.9
2019-01-09T01:03:13.948Z,993.95
2019-01-09T01:03:54.523Z,993.95
2019-01-09T01:04:35.106Z,993.96
2019-01-09T01:05:15.686Z,993.91
2019-01-09T01:05:56.230Z,994.04
2019-01-09T01:06:36.792Z,993.91
2019-01-09T01:07:17.372Z,993.92
2019-01-09T01:07:57.938Z,993.98
2019-01-09T01:08:38.489Z,994.01
2019-01-09T01:09:19.059Z,994
2019-01-09T01:09:59.612Z,994
2019-01-09T01:10:40.291Z,994.01
2019-01-09T01:11:20.890Z,994.05
2019-01-09T01:12:01.461Z,994.09
2019-01-09T01:12:42.037Z,994.06
2019-01-09T01:13:22.601Z,994.04
2019-01-09T01:14:03.199Z,994.12
2019-01-09T01:14:43.778Z,994.01
2019-01-09T01:15:24.341Z,994.03
2019-01-09T01:16:04.930Z,994.13
2019-01-09T01:16:45.489Z,994.1
2019-01-09T01:17:26.057Z,994.09
2019-01-09T01:18:06.617Z,994.13
2019-01-09T01:18:47.186Z,994.16
2019-01-09T01:19:27.779Z,994.13
2019-01-09T01:20:08.325Z,994.1
2019-01-09T01:20:48.881Z,994.09
2019-01-09T01:21:29.436Z,994.15
2019-01-09T01:22:10.051Z,994.16
2019-01-09T01:22:50.566Z,994.18
2019-01-09T01:23:31.133Z,994.18
2019-01-09T01:24:11.688Z,994.18
2019-01-09T01:24:52.252Z,994.17
2019-01-09T01:25:32.811Z,994.14
2019-01-09T01:26:13.378Z,994.22
2019-01-09T01:26:53.921Z,994.25
2019-01-09T01:27:34.484Z,994.17
2019-01-09T01:28:15.024Z,994.2
2019-01-09T01:28:55.594Z,994.18
2019-01-09T01:29:36.209Z,994.25
2019-01-09T01:30:16.774Z,994.27
2019-01-09T01:30:57.346Z,994.27
2019-01-09T01:31:37.892Z,994.23
2019-01-09T01:32:18.471Z,994.24
2019-01-09T01:32:59.035Z,994.25
2019-01-09T01:33:39.589Z,994.32
2019-01-09T01:34:20.407Z,994.24
2019-01-09T01:35:00.968Z,994.36
2019-01-09T01:35:41.522Z,994.31
2019-01-09T01:36:22.067Z,994.36
2019-01-09T01:37:02.617Z,994.41
2019-01-09T01:37:43.207Z,994.33
2019-01-09T01:38:23.776Z,994.39
2019-01-09T01:39:04.324Z,994.39
2019-01-09T01:39:44.881Z,994.32
2019-01-09T01:40:25.454Z,994.39
2019-01-09T01:41:06.017Z,994.44
2019-01-09T01:41:46.605Z,994.35
2019-01-09T01:42:27.187Z,994.45
2019-01-09T01:43:07.738Z,994.42
2019-01-09T01:43:48.422Z,994.49
2019-01-09T01:44:29.011Z,994.42
2019-01-09T01:45:09.567Z,994.51
2019-01-09T01:45:50.138Z,994.45
2019-01-09T01:46:30.715Z,994.54
2019-01-09T01:47:11.274Z,994.59
2019-01-09T01:47:51.831Z,994.54
2019-01-09T01:48:32.410Z,994.49
2019-01-09T01:49:12.993Z,994.48
2019-01-09T01:49:53.550Z,994.5
2019-01-09T01:50:34.113Z,994.55
2019-01-09T01:51:14.665Z,994.53
2019-01-09T01:51:55.224Z,994.5
2019-01-09T01:52:35.779Z,994.54
2019-01-09T01:53:16.358Z,994.55
2019-01-09T01:53:56.930Z,994.6
2019-01-09T01:54:37.493Z,994.6
2019-01-09T01:55:18.054Z,994.64
2019-01-09T01:55:58.602Z,994.56
2019-01-09T01:56:39.195Z,994.57
2019-01-09T01:57:19.777Z,994.59
2019-01-09T01:58:00.343Z,994.57
2019-01-09T01:58:40.923Z,994.6
2019-01-09T01:59:21.515Z,994.66
2019-01-09T02:00:02.067Z,994.54
2019-01-09T02:00:42.631Z,994.61
2019-01-09T02:01:23.193Z,994.6
2019-01-09T02:02:03.758Z,994.6
2019-01-09T02:02:44.317Z,994.64
2019-01-09T02:03:24.886Z,994.53
2019-01-09T02:04:05.438Z,994.65
2019-01-09T02:04:46.000Z,994.67
2019-01-09T02:05:26.567Z,994.78
2019-01-09T02:06:07.093Z,994.7
2019-01-09T02:06:47.651Z,994.69
2019-01-09T02:07:28.200Z,994.66
2019-01-09T02:08:08.769Z,994.75
2019-01-09T02:08:49.408Z,994.7
2019-01-09T02:09:29.986Z,994.77
2019-01-09T02:10:10.520Z,994.79
2019-01-09T02:10:51.091Z,994.71
2019-01-09T02:11:31.666Z,994.8
2019-01-09T02:12:12.224Z,994.79
2019-01-09T02:12:52.807Z,994.83
2019-01-09T02:13:33.363Z,994.85
2019-01-09T02:14:13.943Z,994.86
2019-01-09T02:14:54.519Z,994.81
2019-01-09T02:15:35.117Z,994.76
2019-01-09T02:16:15.701Z,994.76
2019-01-09T02:16:56.279Z,994.86
2019-01-09T02:17:36.861Z,994.76
2019-01-09T02:18:17.444Z,994.79
2019-01-09T02:18:58.007Z,994.84
2019-01-09T02:19:38.573Z,994.77
2019-01-09T02:20:19.134Z,994.84
2019-01-09T02:20:59.704Z,994.84
2019-01-09T02:21:40.265Z,994.86
2019-01-09T02:22:20.856Z,994.87
2019-01-09T02:23:01.435Z,994.92
2019-01-09T02:23:41.984Z,994.88
2019-01-09T02:24:22.596Z,994.92
2019-01-09T02:25:03.162Z,994.91
2019-01-09T02:25:43.720Z,994.89
2019-01-09T02:26:24.288Z,994.93
2019-01-09T02:27:04.863Z,994.91
2019-01-09T02:27:45.440Z,994.9
2019-01-09T02:28:25.983Z,994.94
2019-01-09T02:29:06.572Z,994.97
2019-01-09T02:29:47.128Z,995.01
2019-01-09T02:30:27.682Z,994.95
2019-01-09T02:31:08.248Z,994.98
2019-01-09T02:31:48.808Z,994.94
2019-01-09T02:32:29.381Z,995
2019-01-09T02:33:09.943Z,994.98
2019-01-09T02:33:50.523Z,994.95
2019-01-09T02:34:31.095Z,995.01
2019-01-09T02:35:11.664Z,995.05
2019-01-09T02:35:52.276Z,995.02
2019-01-09T02:36:32.794Z,995.05
2019-01-09T02:37:13.365Z,995.01
2019-01-09T02:37:53.907Z,994.97
2019-01-09T02:38:34.473Z,994.99
2019-01-09T02:39:15.040Z,995.11
2019-01-09T02:39:55.620Z,995.08
2019-01-09T02:40:36.201Z,995.11
2019-01-09T02:41:16.755Z,995.1
2019-01-09T02:41:57.298Z,995.16
2019-01-09T02:42:37.896Z,995.16
2019-01-09T02:43:18.449Z,995.22
2019-01-09T02:43:59.005Z,995.07
2019-01-09T02:44:39.584Z,995.17
2019-01-09T02:45:20.155Z,995.14
2019-01-09T02:46:00.726Z,995.2
2019-01-09T02:46:41.296Z,995.18
2019-01-09T02:47:21.853Z,995.21
2019-01-09T02:48:02.440Z,995.14
2019-01-09T02:48:42.998Z,995.28
2019-01-09T02:49:23.559Z,995.2
2019-01-09T02:50:04.106Z,995.26
2019-01-09T02:50:44.664Z,995.31
2019-01-09T02:51:25.223Z,995.24
2019-01-09T02:52:05.816Z,995.24
2019-01-09T02:52:46.412Z,995.28
2019-01-09T02:53:26.969Z,995.21
2019-01-09T02:54:07.533Z,995.29
2019-01-09T02:54:48.103Z,995.29
2019-01-09T02:55:28.649Z,995.34
2019-01-09T02:56:09.217Z,995.28
2019-01-09T02:56:49.797Z,995.33
2019-01-09T02:57:30.353Z,995.28
2019-01-09T02:58:10.912Z,995.33
2019-01-09T02:58:51.471Z,995.23
2019-01-09T02:59:32.075Z,995.27
2019-01-09T03:00:12.639Z,995.28
2019-01-09T03:00:53.209Z,995.26
2019-01-09T03:01:33.759Z,995.3
2019-01-09T03:02:14.327Z,995.28
2019-01-09T03:02:54.926Z,995.28
2019-01-09T03:03:35.493Z,995.33
2019-01-09T03:04:16.054Z,995.24
2019-01-09T03:04:56.601Z,995.3
2019-01-09T03:05:37.165Z,995.37
2019-01-09T03:06:22.871Z,995.36
2019-01-09T03:06:58.294Z,995.3
2019-01-09T03:07:38.839Z,995.35
2019-01-09T03:08:19.416Z,995.43
2019-01-09T03:08:59.973Z,995.4
2019-01-09T03:09:40.544Z,995.33
2019-01-09T03:10:21.108Z,995.36
2019-01-09T03:11:01.680Z,995.38
2019-01-09T03:11:42.257Z,995.36
2019-01-09T03:12:22.829Z,995.37
2019-01-09T03:13:03.404Z,995.38
2019-01-09T03:13:43.969Z,995.3
2019-01-09T03:14:24.519Z,995.35
2019-01-09T03:15:05.072Z,995.33
2019-01-09T03:15:45.639Z,995.32
2019-01-09T03:16:26.190Z,995.41
2019-01-09T03:17:06.783Z,995.31
2019-01-09T03:17:47.345Z,995.35
2019-01-09T03:18:27.908Z,995.37
2019-01-09T03:19:08.494Z,995.41
2019-01-09T03:19:49.053Z,995.42
2019-01-09T03:20:29.604Z,995.39
2019-01-09T03:21:10.168Z,995.43
2019-01-09T03:21:50.753Z,995.45
2019-01-09T03:22:31.315Z,995.39
2019-01-09T03:23:11.881Z,995.4
2019-01-09T03:23:52.537Z,995.43
2019-01-09T03:24:33.089Z,995.38
2019-01-09T03:25:13.641Z,995.42
2019-01-09T03:25:54.204Z,995.41
2019-01-09T03:26:34.757Z,995.43
2019-01-09T03:27:15.351Z,995.44
2019-01-09T03:27:55.920Z,995.52
2019-01-09T03:28:36.500Z,995.43
2019-01-09T03:29:17.083Z,995.47
2019-01-09T03:29:57.659Z,995.49
2019-01-09T03:30:38.218Z,995.45
2019-01-09T03:31:18.801Z,995.48
2019-01-09T03:31:59.444Z,995.47
2019-01-09T03:32:40.028Z,995.56
2019-01-09T03:33:20.613Z,995.49
2019-01-09T03:34:01.184Z,995.56
2019-01-09T03:34:42.006Z,995.49
2019-01-09T03:35:22.543Z,995.48
2019-01-09T03:36:03.139Z,995.54
2019-01-09T03:36:43.708Z,995.54
2019-01-09T03:37:24.303Z,995.53
2019-01-09T03:38:04.866Z,995.5
2019-01-09T03:38:45.434Z,995.52
2019-01-09T03:39:25.988Z,995.58
2019-01-09T03:40:06.578Z,995.47
2019-01-09T03:40:47.128Z,995.58
2019-01-09T03:41:27.695Z,995.58
2019-01-09T03:42:08.312Z,995.61
2019-01-09T03:42:48.873Z,995.57
2019-01-09T03:43:29.445Z,995.62
2019-01-09T03:44:10.014Z,995.63
2019-01-09T03:44:50.585Z,995.61
2019-01-09T03:45:31.143Z,995.55
2019-01-09T03:46:11.699Z,995.56
2019-01-09T03:46:52.269Z,995.63
2019-01-09T03:47:32.846Z,995.55
2019-01-09T03:48:13.410Z,995.59
2019-01-09T03:48:54.041Z,995.58
2019-01-09T03:49:34.596Z,995.62
2019-01-09T03:50:15.198Z,995.61
2019-01-09T03:50:55.781Z,995.64
2019-01-09T03:51:36.354Z,995.61
2019-01-09T03:52:16.914Z,995.61
2019-01-09T03:52:57.476Z,995.65
2019-01-09T03:53:38.039Z,995.61
2019-01-09T03:54:18.583Z,995.65
2019-01-09T03:54:59.135Z,995.64
2019-01-09T03:55:39.727Z,995.64
2019-01-09T03:56:20.305Z,995.61
2019-01-09T03:57:00.867Z,995.64
2019-01-09T03:57:41.409Z,995.68
2019-01-09T03:58:22.011Z,995.63
2019-01-09T03:59:02.565Z,995.68
2019-01-09T03:59:43.116Z,995.68
2019-01-09T04:00:23.690Z,995.69
2019-01-09T04:01:04.278Z,995.74
2019-01-09T04:01:44.851Z,995.67
2019-01-09T04:02:25.424Z,995.72
2019-01-09T04:03:06.739Z,995.75
2019-01-09T04:03:47.307Z,995.7
2019-01-09T04:04:27.873Z,995.71
2019-01-09T04:05:08.457Z,995.75
2019-01-09T04:05:49.016Z,995.73
2019-01-09T04:06:29.566Z,995.74
2019-01-09T04:07:10.128Z,995.77
2019-01-09T04:07:50.701Z,995.73
2019-01-09T04:08:31.263Z,995.82
2019-01-09T04:09:11.870Z,995.72
2019-01-09T04:09:52.430Z,995.78
2019-01-09T04:10:32.983Z,995.77
2019-01-09T04:11:13.542Z,995.75
2019-01-09T04:11:54.128Z,995.88
2019-01-09T04:12:34.666Z,995.76
2019-01-09T04:13:15.269Z,995.85
2019-01-09T04:13:55.842Z,995.81
2019-01-09T04:14:36.512Z,995.83
2019-01-09T04:15:17.014Z,995.77
2019-01-09T04:15:57.612Z,995.83
2019-01-09T04:16:38.211Z,995.81
2019-01-09T04:17:18.775Z,995.86
2019-01-09T04:17:59.329Z,995.94
2019-01-09T04:18:39.942Z,995.87
2019-01-09T04:19:20.545Z,995.9
2019-01-09T04:20:01.121Z,995.87
2019-01-09T04:20:41.664Z,995.81
2019-01-09T04:21:22.216Z,995.93
2019-01-09T04:22:02.813Z,995.91
2019-01-09T04:22:43.372Z,995.8
2019-01-09T04:23:23.925Z,995.91
2019-01-09T04:24:04.487Z,995.9
2019-01-09T04:24:45.090Z,995.93
2019-01-09T04:25:25.670Z,995.92
2019-01-09T04:26:06.217Z,995.89
2019-01-09T04:26:46.819Z,995.94
2019-01-09T04:27:27.370Z,995.96
2019-01-09T04:28:07.930Z,995.94
2019-01-09T04:28:48.515Z,995.91
2019-01-09T04:29:29.087Z,995.99
2019-01-09T04:30:09.669Z,995.94
2019-01-09T04:30:50.274Z,995.93
2019-01-09T04:31:30.836Z,995.99
2019-01-09T04:32:11.396Z,995.95
2019-01-09T04:32:51.961Z,995.97
2019-01-09T04:33:32.533Z,995.96
2019-01-09T04:34:13.105Z,995.99
2019-01-09T04:34:53.672Z,996
2019-01-09T04:35:34.233Z,995.95
2019-01-09T04:36:14.842Z,995.98
2019-01-09T04:36:55.467Z,996.02
2019-01-09T04:37:36.028Z,995.97
2019-01-09T04:38:16.607Z,995.99
2019-01-09T04:38:57.158Z,996.04
2019-01-09T04:39:37.720Z,996.06
2019-01-09T04:40:18.278Z,996.01
2019-01-09T04:40:58.843Z,995.97
2019-01-09T04:41:39.405Z,995.98
2019-01-09T04:42:20.050Z,995.99
2019-01-09T04:43:00.602Z,996
2019-01-09T04:43:41.152Z,995.97
2019-01-09T04:44:21.791Z,996.1
2019-01-09T04:45:02.433Z,996.12
2019-01-09T04:45:43.005Z,995.99
2019-01-09T04:46:23.584Z,996.08
2019-01-09T04:47:04.140Z,996.11
2019-01-09T04:47:44.735Z,996.01
2019-01-09T04:48:25.314Z,995.99
2019-01-09T04:49:05.868Z,995.94
2019-01-09T04:49:46.453Z,996.08
2019-01-09T04:50:27.031Z,996.05
2019-01-09T04:51:07.616Z,996.06
2019-01-09T04:51:48.193Z,996.1
2019-01-09T04:52:28.769Z,996
2019-01-09T04:53:09.323Z,996.06
2019-01-09T04:53:49.881Z,996.02
2019-01-09T04:54:30.432Z,996.05
2019-01-09T04:55:10.999Z,996.02
2019-01-09T04:55:51.551Z,996.05
2019-01-09T04:56:32.157Z,996.16
2019-01-09T04:57:12.704Z,996.07
2019-01-09T04:57:53.259Z,996.05
2019-01-09T04:58:33.838Z,996.14
2019-01-09T04:59:14.451Z,996.11
2019-01-09T04:59:55.053Z,996.1
2019-01-09T05:00:35.608Z,996.1
2019-01-09T05:01:16.178Z,996.1
2019-01-09T05:01:56.773Z,996.08
2019-01-09T05:02:37.338Z,996.04
2019-01-09T05:03:17.901Z,996.08
2019-01-09T05:03:58.524Z,996.07
2019-01-09T05:04:39.107Z,996.11
2019-01-09T05:05:19.695Z,996.11
2019-01-09T05:06:00.250Z,996.16
2019-01-09T05:06:40.839Z,996.12
2019-01-09T05:07:21.388Z,996.13
2019-01-09T05:08:01.957Z,996.13
2019-01-09T05:08:42.521Z,996.07
2019-01-09T05:09:23.114Z,996.17
2019-01-09T05:10:03.679Z,996.18
2019-01-09T05:10:44.240Z,996.16
2019-01-09T05:11:24.800Z,996.16
2019-01-09T05:12:05.352Z,996.14
2019-01-09T05:12:45.924Z,996.23
2019-01-09T05:13:26.517Z,996.24
2019-01-09T05:14:07.087Z,996.3
2019-01-09T05:14:47.641Z,996.21
2019-01-09T05:15:28.227Z,996.25
2019-01-09T05:16:08.819Z,996.25
2019-01-09T05:16:49.397Z,996.28
2019-01-09T05:17:29.978Z,996.21
2019-01-09T05:18:10.530Z,996.19
2019-01-09T05:18:51.113Z,996.24
2019-01-09T05:19:31.688Z,996.27
2019-01-09T05:20:12.250Z,996.29
2019-01-09T05:20:52.819Z,996.25
2019-01-09T05:21:33.373Z,996.3
2019-01-09T05:22:13.931Z,996.27
2019-01-09T05:22:54.486Z,996.24
2019-01-09T05:23:35.036Z,996.31
2019-01-09T05:24:15.615Z,996.35
2019-01-09T05:24:56.151Z,996.39
2019-01-09T05:25:36.731Z,996.38
2019-01-09T05:26:17.296Z,996.25
2019-01-09T05:26:57.849Z,996.24
2019-01-09T05:27:38.417Z,996.25
2019-01-09T05:28:18.983Z,996.29
2019-01-09T05:28:59.547Z,996.4
2019-01-09T05:29:40.143Z,996.4
2019-01-09T05:30:20.736Z,996.32
2019-01-09T05:31:07.316Z,996.36
2019-01-09T05:31:41.949Z,996.42
2019-01-09T05:32:22.505Z,996.41
2019-01-09T05:33:03.058Z,996.36
2019-01-09T05:33:43.631Z,996.37
2019-01-09T05:34:24.729Z,996.43
2019-01-09T05:35:05.299Z,996.38
2019-01-09T05:35:45.867Z,996.44
2019-01-09T05:36:26.433Z,996.35
2019-01-09T05:37:09.559Z,996.4
2019-01-09T05:37:47.545Z,996.38
2019-01-09T05:38:28.859Z,996.46
2019-01-09T05:39:09.442Z,996.46
2019-01-09T05:39:50.002Z,996.46
2019-01-09T05:40:30.585Z,996.52
2019-01-09T05:41:11.147Z,996.44
2019-01-09T05:41:51.698Z,996.43
2019-01-09T05:42:32.261Z,996.49
2019-01-09T05:43:12.898Z,996.45
2019-01-09T05:43:53.510Z,996.48
2019-01-09T05:44:34.041Z,996.48
2019-01-09T05:45:14.608Z,996.48
2019-01-09T05:45:55.190Z,996.56
2019-01-09T05:46:35.753Z,996.55
2019-01-09T05:47:16.366Z,996.54
2019-01-09T05:47:56.923Z,996.5
2019-01-09T05:48:37.495Z,996.51
2019-01-09T05:49:18.047Z,996.56
2019-01-09T05:49:58.627Z,996.57
2019-01-09T05:50:39.214Z,996.54
2019-01-09T05:51:19.773Z,996.58
2019-01-09T05:52:00.334Z,996.55
2019-01-09T05:52:40.897Z,996.55
2019-01-09T05:53:21.444Z,996.59
2019-01-09T05:54:02.009Z,996.61
2019-01-09T05:54:42.555Z,996.52
2019-01-09T05:55:23.111Z,996.54
2019-01-09T05:56:03.674Z,996.58
2019-01-09T05:56:44.234Z,996.59
2019-01-09T05:57:24.798Z,996.55
2019-01-09T05:58:05.374Z,996.64
2019-01-09T05:58:45.987Z,996.58
2019-01-09T05:59:26.554Z,996.63
2019-01-09T06:00:07.151Z,996.59
2019-01-09T06:00:47.729Z,996.6
2019-01-09T06:01:28.270Z,996.64
2019-01-09T06:02:08.825Z,996.63
2019-01-09T06:02:49.429Z,996.6
2019-01-09T06:03:30.021Z,996.7
2019-01-09T06:04:10.616Z,996.7
2019-01-09T06:04:51.182Z,996.66
2019-01-09T06:05:31.731Z,996.7
2019-01-09T06:06:12.282Z,996.68
2019-01-09T06:06:52.846Z,996.74
2019-01-09T06:07:33.417Z,996.69
2019-01-09T06:08:13.981Z,996.68
2019-01-09T06:08:54.556Z,996.72
2019-01-09T06:09:35.146Z,996.65
2019-01-09T06:10:15.793Z,996.72
2019-01-09T06:10:56.355Z,996.8
2019-01-09T06:11:36.957Z,996.72
2019-01-09T06:12:17.531Z,996.73
2019-01-09T06:12:58.101Z,996.8
2019-01-09T06:13:38.673Z,996.76
2019-01-09T06:14:19.208Z,996.79
2019-01-09T06:14:59.812Z,996.82
2019-01-09T06:15:40.411Z,996.78
2019-01-09T06:16:20.972Z,996.76
2019-01-09T06:17:01.549Z,996.86
2019-01-09T06:17:42.136Z,996.81
2019-01-09T06:18:22.760Z,996.9
2019-01-09T06:19:03.346Z,996.82
2019-01-09T06:19:43.914Z,996.88
2019-01-09T06:20:24.458Z,996.86
2019-01-09T06:21:05.012Z,996.85
2019-01-09T06:21:45.589Z,996.85
2019-01-09T06:22:26.188Z,996.91
2019-01-09T06:23:06.794Z,996.86
2019-01-09T06:23:47.389Z,996.93
2019-01-09T06:24:27.950Z,996.9
2019-01-09T06:25:08.517Z,996.89
2019-01-09T06:25:49.066Z,996.98
2019-01-09T06:26:29.621Z,996.99
2019-01-09T06:27:10.181Z,996.97
2019-01-09T06:27:50.745Z,996.95
2019-01-09T06:28:31.312Z,996.94
2019-01-09T06:29:11.905Z,996.89
2019-01-09T06:29:52.475Z,996.97
2019-01-09T06:30:33.037Z,996.94
2019-01-09T06:31:13.591Z,996.96
2019-01-09T06:31:54.159Z,996.96
2019-01-09T06:32:34.717Z,997.01
2019-01-09T06:33:15.318Z,997.02
2019-01-09T06:33:55.876Z,997.09
2019-01-09T06:34:36.457Z,997.04
2019-01-09T06:35:17.023Z,997.07
2019-01-09T06:35:57.581Z,997.09
2019-01-09T06:36:38.150Z,997.04
2019-01-09T06:37:27.054Z,997.07
2019-01-09T06:37:59.255Z,997.1
2019-01-09T06:38:39.835Z,997.07
2019-01-09T06:39:20.396Z,997.07
2019-01-09T06:40:00.974Z,997.11
2019-01-09T06:40:41.530Z,997.05
2019-01-09T06:41:22.106Z,997.15
2019-01-09T06:42:02.748Z,997.14
2019-01-09T06:42:43.279Z,997.09
2019-01-09T06:43:23.901Z,997.15
2019-01-09T06:44:04.518Z,997.18
2019-01-09T06:44:45.052Z,997.16
2019-01-09T06:45:25.631Z,997.18
2019-01-09T06:46:06.199Z,997.17
2019-01-09T06:46:46.781Z,997.13
2019-01-09T06:47:27.342Z,997.15
2019-01-09T06:48:07.944Z,997.1
2019-01-09T06:48:48.512Z,997.21
2019-01-09T06:49:29.079Z,997.17
2019-01-09T06:50:09.652Z,997.18
2019-01-09T06:50:50.248Z,997.18
2019-01-09T06:51:30.805Z,997.21
2019-01-09T06:52:11.365Z,997.2
2019-01-09T06:52:51.920Z,997.19
2019-01-09T06:53:32.532Z,997.18
2019-01-09T06:54:13.123Z,997.16
2019-01-09T06:54:53.651Z,997.15
2019-01-09T06:55:34.202Z,997.12
2019-01-09T06:56:14.822Z,997.18
2019-01-09T06:56:55.345Z,997.19
2019-01-09T06:57:35.923Z,997.22
2019-01-09T06:58:16.495Z,997.3
2019-01-09T06:58:57.047Z,997.23
2019-01-09T06:59:37.614Z,997.29
2019-01-09T07:00:18.164Z,997.23
2019-01-09T07:00:58.753Z,997.21
2019-01-09T07:01:39.330Z,997.21
2019-01-09T07:02:19.897Z,997.07
2019-01-09T07:03:00.451Z,997.21
2019-01-09T07:03:41.062Z,997.19
2019-01-09T07:04:21.627Z,997.34
2019-01-09T07:05:02.218Z,997.26
2019-01-09T07:05:42.777Z,997.35
2019-01-09T07:06:23.366Z,997.38
2019-01-09T07:07:03.979Z,997.34
2019-01-09T07:07:44.572Z,997.4
2019-01-09T07:08:25.129Z,997.36
2019-01-09T07:09:05.683Z,997.35
2019-01-09T07:09:46.271Z,997.36
2019-01-09T07:10:26.840Z,997.39
2019-01-09T07:11:07.405Z,997.42
2019-01-09T07:11:48.040Z,997.43
2019-01-09T07:12:28.660Z,997.45
2019-01-09T07:13:09.437Z,997.37
2019-01-09T07:13:50.000Z,997.4
2019-01-09T07:14:30.551Z,997.38
2019-01-09T07:15:13.625Z,997.38
2019-01-09T07:15:51.723Z,997.39
2019-01-09T07:16:32.289Z,997.39
2019-01-09T07:17:12.837Z,997.41
2019-01-09T07:17:53.407Z,997.43
2019-01-09T07:18:34.084Z,997.39
2019-01-09T07:19:14.664Z,997.42
2019-01-09T07:19:55.230Z,997.4
2019-01-09T07:20:35.808Z,997.4
2019-01-09T07:21:16.358Z,997.47
2019-01-09T07:21:56.910Z,997.41
2019-01-09T07:22:37.497Z,997.58
2019-01-09T07:23:18.061Z,997.5
2019-01-09T07:23:58.622Z,997.52
2019-01-09T07:24:39.189Z,997.55
2019-01-09T07:25:19.769Z,997.43
2019-01-09T07:26:00.341Z,997.52
2019-01-09T07:26:40.932Z,997.53
2019-01-09T07:27:21.527Z,997.64
2019-01-09T07:28:02.154Z,997.57
2019-01-09T07:28:42.776Z,997.62
2019-01-09T07:29:23.268Z,997.53
2019-01-09T07:30:03.828Z,997.62
2019-01-09T07:30:44.388Z,997.66
2019-01-09T07:31:24.992Z,997.67
2019-01-09T07:32:05.550Z,997.65
2019-01-09T07:32:46.121Z,997.63
2019-01-09T07:33:26.867Z,997.73
2019-01-09T07:34:07.325Z,997.67
2019-01-09T07:34:48.180Z,997.7
2019-01-09T07:35:28.736Z,997.68
2019-01-09T07:36:09.299Z,997.65
2019-01-09T07:36:49.864Z,997.75
2019-01-09T07:37:30.482Z,997.75
2019-01-09T07:38:11.050Z,997.76
2019-01-09T07:38:51.617Z,997.78
2019-01-09T07:39:32.174Z,997.8
2019-01-09T07:40:12.736Z,997.76
2019-01-09T07:40:53.315Z,997.77
2019-01-09T07:41:33.911Z,997.76
2019-01-09T07:42:14.452Z,997.78
2019-01-09T07:42:55.022Z,997.77
2019-01-09T07:43:35.638Z,997.81
2019-01-09T07:44:16.221Z,997.87
2019-01-09T07:44:56.824Z,997.79
2019-01-09T07:45:37.426Z,997.83
2019-01-09T07:46:18.066Z,997.85
2019-01-09T07:46:58.651Z,997.89
2019-01-09T07:47:39.242Z,997.91
2019-01-09T07:48:20.649Z,997.9
2019-01-09T07:49:01.230Z,997.94
2019-01-09T07:49:42.536Z,997.96
2019-01-09T07:50:23.102Z,997.88
2019-01-09T07:51:03.659Z,997.89
2019-01-09T07:51:44.250Z,997.94
2019-01-09T07:52:24.814Z,997.96
2019-01-09T07:53:05.419Z,997.95
2019-01-09T07:53:45.976Z,997.96
2019-01-09T07:54:26.527Z,998.03
2019-01-09T07:55:07.114Z,997.98
2019-01-09T07:55:47.732Z,997.99
2019-01-09T07:56:28.328Z,997.97
2019-01-09T07:57:08.889Z,997.99
2019-01-09T07:57:49.478Z,998.01
2019-01-09T07:58:30.075Z,998.03
2019-01-09T07:59:10.610Z,997.98
2019-01-09T07:59:51.196Z,998.04
2019-01-09T08:00:31.774Z,998.01
2019-01-09T08:01:12.443Z,997.96
2019-01-09T08:01:53.026Z,998.08
2019-01-09T08:02:33.622Z,998.01
2019-01-09T08:03:14.241Z,998.08
2019-01-09T08:03:54.801Z,998.02
2019-01-09T08:04:35.358Z,998.1
2019-01-09T08:05:15.957Z,998.08
2019-01-09T08:05:56.578Z,998.08
2019-01-09T08:06:37.139Z,998.09
2019-01-09T08:07:17.804Z,998.08
2019-01-09T08:07:58.492Z,998.22
2019-01-09T08:08:39.084Z,998.08
2019-01-09T08:09:19.760Z,998.19
2019-01-09T08:10:00.307Z,998.18
2019-01-09T08:10:43.821Z,998.12
2019-01-09T08:11:23.638Z,998.27
2019-01-09T08:12:04.370Z,998.2
2019-01-09T08:12:44.929Z,998.19
2019-01-09T08:13:25.516Z,998.28
2019-01-09T08:14:06.108Z,998.27
2019-01-09T08:14:46.694Z,998.28
2019-01-09T08:15:27.253Z,998.27
2019-01-09T08:16:07.814Z,998.33
2019-01-09T08:16:48.379Z,998.29
2019-01-09T08:17:28.941Z,998.31
2019-01-09T08:18:09.483Z,998.29
2019-01-09T08:18:50.053Z,998.3
2019-01-09T08:19:30.615Z,998.38
2019-01-09T08:20:11.192Z,998.33
2019-01-09T08:20:51.769Z,998.36
2019-01-09T08:21:32.451Z,998.38
2019-01-09T08:22:13.074Z,998.41
2019-01-09T08:22:53.668Z,998.39
2019-01-09T08:23:34.439Z,998.36
2019-01-09T08:24:15.030Z,998.42
2019-01-09T08:24:55.632Z,998.39
2019-01-09T08:25:36.207Z,998.41
2019-01-09T08:26:16.772Z,998.48
2019-01-09T08:26:57.318Z,998.46
2019-01-09T08:27:37.983Z,998.45
2019-01-09T08:28:18.548Z,998.41